sensor_id;sensor_type;location;lat;lon;timestamp;P1;durP1;ratioP1;P2;durP2;ratioP2
34134;SDS011;20410;55.578;12.968;2023-11-19T00:00:22;3.10;;;2.77;;
34134;SDS011;20410;55.578;12.968;2023-11-19T00:02:48;3.03;;;2.73;;
34134;SDS011;20410;55.578;12.968;2023-11-19T00:05:14;3.30;;;2.60;;
34134;SDS011;20410;55.578;12.968;2023-11-19T00:07:40;2.53;;;2.23;;
34134;SDS011;20410;55.578;12.968;2023-11-19T00:10:09;3.43;;;2.70;;
34134;SDS011;20410;55.578;12.968;2023-11-19T00:12:39;2.67;;;2.47;;
34134;SDS011;20410;55.578;12.968;2023-11-19T00:15:06;2.93;;;2.73;;
34134;SDS011;20410;55.578;12.968;2023-11-19T00:17:36;3.90;;;3.60;;
34134;SDS011;20410;55.578;12.968;2023-11-19T00:20:03;2.50;;;2.30;;
34134;SDS011;20410;55.578;12.968;2023-11-19T00:22:31;3.07;;;2.77;;
34134;SDS011;20410;55.578;12.968;2023-11-19T00:24:56;3.00;;;2.77;;
34134;SDS011;20410;55.578;12.968;2023-11-19T00:27:22;3.07;;;2.87;;
34134;SDS011;20410;55.578;12.968;2023-11-19T00:29:48;3.07;;;2.30;;
34134;SDS011;20410;55.578;12.968;2023-11-19T00:32:14;4.23;;;2.63;;
34134;SDS011;20410;55.578;12.968;2023-11-19T00:34:40;2.90;;;2.70;;
34134;SDS011;20410;55.578;12.968;2023-11-19T00:37:06;2.87;;;2.57;;
34134;SDS011;20410;55.578;12.968;2023-11-19T00:39:31;3.17;;;2.87;;
34134;SDS011;20410;55.578;12.968;2023-11-19T00:41:57;3.00;;;2.80;;
34134;SDS011;20410;55.578;12.968;2023-11-19T00:44:23;2.90;;;2.70;;
34134;SDS011;20410;55.578;12.968;2023-11-19T00:46:48;3.80;;;3.27;;
34134;SDS011;20410;55.578;12.968;2023-11-19T00:49:14;3.60;;;2.60;;
34134;SDS011;20410;55.578;12.968;2023-11-19T00:51:40;3.60;;;3.23;;
34134;SDS011;20410;55.578;12.968;2023-11-19T00:54:06;4.17;;;3.13;;
34134;SDS011;20410;55.578;12.968;2023-11-19T00:56:31;4.80;;;3.27;;
34134;SDS011;20410;55.578;12.968;2023-11-19T00:58:57;6.10;;;3.30;;
34134;SDS011;20410;55.578;12.968;2023-11-19T01:01:22;3.33;;;2.97;;
34134;SDS011;20410;55.578;12.968;2023-11-19T01:03:50;3.50;;;3.20;;
34134;SDS011;20410;55.578;12.968;2023-11-19T01:06:26;4.23;;;3.17;;
34134;SDS011;20410;55.578;12.968;2023-11-19T01:08:52;3.87;;;3.50;;
34134;SDS011;20410;55.578;12.968;2023-11-19T01:11:21;4.10;;;3.60;;
34134;SDS011;20410;55.578;12.968;2023-11-19T01:13:50;3.87;;;3.43;;
34134;SDS011;20410;55.578;12.968;2023-11-19T01:16:17;3.63;;;3.33;;
34134;SDS011;20410;55.578;12.968;2023-11-19T01:18:43;4.33;;;3.93;;
34134;SDS011;20410;55.578;12.968;2023-11-19T01:21:09;5.30;;;3.70;;
34134;SDS011;20410;55.578;12.968;2023-11-19T01:23:35;4.87;;;3.70;;
34134;SDS011;20410;55.578;12.968;2023-11-19T01:26:02;4.37;;;3.93;;
34134;SDS011;20410;55.578;12.968;2023-11-19T01:28:28;4.07;;;3.53;;
34134;SDS011;20410;55.578;12.968;2023-11-19T01:30:53;4.30;;;3.87;;
34134;SDS011;20410;55.578;12.968;2023-11-19T01:33:19;5.83;;;3.77;;
34134;SDS011;20410;55.578;12.968;2023-11-19T01:35:46;4.93;;;4.43;;
34134;SDS011;20410;55.578;12.968;2023-11-19T01:38:11;5.17;;;4.23;;
34134;SDS011;20410;55.578;12.968;2023-11-19T01:40:37;4.50;;;3.80;;
34134;SDS011;20410;55.578;12.968;2023-11-19T01:43:03;5.03;;;4.63;;
34134;SDS011;20410;55.578;12.968;2023-11-19T01:45:29;4.30;;;3.90;;
34134;SDS011;20410;55.578;12.968;2023-11-19T01:47:56;5.67;;;4.10;;
34134;SDS011;20410;55.578;12.968;2023-11-19T01:50:22;4.67;;;4.27;;
34134;SDS011;20410;55.578;12.968;2023-11-19T01:52:50;4.37;;;4.00;;
34134;SDS011;20410;55.578;12.968;2023-11-19T01:55:19;5.03;;;4.47;;
34134;SDS011;20410;55.578;12.968;2023-11-19T01:57:46;5.23;;;4.73;;
34134;SDS011;20410;55.578;12.968;2023-11-19T02:00:14;4.53;;;4.13;;
34134;SDS011;20410;55.578;12.968;2023-11-19T02:02:41;4.37;;;3.97;;
34134;SDS011;20410;55.578;12.968;2023-11-19T02:05:08;4.97;;;4.47;;
34134;SDS011;20410;55.578;12.968;2023-11-19T02:07:34;5.63;;;4.20;;
34134;SDS011;20410;55.578;12.968;2023-11-19T02:09:59;4.73;;;4.23;;
34134;SDS011;20410;55.578;12.968;2023-11-19T02:12:28;4.90;;;4.43;;
34134;SDS011;20410;55.578;12.968;2023-11-19T02:14:54;5.20;;;4.30;;
34134;SDS011;20410;55.578;12.968;2023-11-19T02:19:52;5.13;;;4.63;;
34134;SDS011;20410;55.578;12.968;2023-11-19T02:22:18;4.60;;;3.97;;
34134;SDS011;20410;55.578;12.968;2023-11-19T02:24:45;5.03;;;3.87;;
34134;SDS011;20410;55.578;12.968;2023-11-19T02:27:21;4.23;;;3.83;;
34134;SDS011;20410;55.578;12.968;2023-11-19T02:29:50;6.30;;;4.67;;
34134;SDS011;20410;55.578;12.968;2023-11-19T02:32:16;5.47;;;4.40;;
34134;SDS011;20410;55.578;12.968;2023-11-19T02:34:41;5.70;;;4.57;;
34134;SDS011;20410;55.578;12.968;2023-11-19T02:37:07;5.47;;;4.97;;
34134;SDS011;20410;55.578;12.968;2023-11-19T02:39:33;6.13;;;4.40;;
34134;SDS011;20410;55.578;12.968;2023-11-19T02:41:58;6.10;;;5.03;;
34134;SDS011;20410;55.578;12.968;2023-11-19T02:44:25;5.70;;;4.73;;
34134;SDS011;20410;55.578;12.968;2023-11-19T02:46:53;5.50;;;5.00;;
34134;SDS011;20410;55.578;12.968;2023-11-19T02:49:19;5.63;;;5.10;;
34134;SDS011;20410;55.578;12.968;2023-11-19T02:51:44;6.87;;;5.00;;
34134;SDS011;20410;55.578;12.968;2023-11-19T02:54:10;6.80;;;5.20;;
34134;SDS011;20410;55.578;12.968;2023-11-19T02:56:35;6.00;;;5.23;;
34134;SDS011;20410;55.578;12.968;2023-11-19T02:59:02;9.80;;;5.03;;
34134;SDS011;20410;55.578;12.968;2023-11-19T03:01:40;6.10;;;4.90;;
34134;SDS011;20410;55.578;12.968;2023-11-19T03:04:08;6.80;;;5.00;;
34134;SDS011;20410;55.578;12.968;2023-11-19T03:06:37;6.90;;;5.47;;
34134;SDS011;20410;55.578;12.968;2023-11-19T03:09:03;5.77;;;4.93;;
34134;SDS011;20410;55.578;12.968;2023-11-19T03:11:35;8.00;;;5.33;;
34134;SDS011;20410;55.578;12.968;2023-11-19T03:14:00;5.67;;;4.90;;
34134;SDS011;20410;55.578;12.968;2023-11-19T03:16:27;6.13;;;5.23;;
34134;SDS011;20410;55.578;12.968;2023-11-19T03:18:53;6.50;;;5.23;;
34134;SDS011;20410;55.578;12.968;2023-11-19T03:21:19;7.63;;;5.70;;
34134;SDS011;20410;55.578;12.968;2023-11-19T03:23:44;8.83;;;6.37;;
34134;SDS011;20410;55.578;12.968;2023-11-19T03:26:10;9.53;;;6.10;;
34134;SDS011;20410;55.578;12.968;2023-11-19T03:28:36;7.60;;;5.97;;
34134;SDS011;20410;55.578;12.968;2023-11-19T03:31:04;9.47;;;7.03;;
34134;SDS011;20410;55.578;12.968;2023-11-19T03:33:33;7.83;;;6.90;;
34134;SDS011;20410;55.578;12.968;2023-11-19T03:35:58;7.87;;;6.73;;
34134;SDS011;20410;55.578;12.968;2023-11-19T03:38:24;8.37;;;7.13;;
34134;SDS011;20410;55.578;12.968;2023-11-19T03:40:50;8.07;;;7.27;;
34134;SDS011;20410;55.578;12.968;2023-11-19T03:43:15;10.50;;;7.37;;
34134;SDS011;20410;55.578;12.968;2023-11-19T03:45:41;9.43;;;7.80;;
34134;SDS011;20410;55.578;12.968;2023-11-19T03:48:06;11.10;;;7.77;;
34134;SDS011;20410;55.578;12.968;2023-11-19T03:50:32;11.50;;;8.40;;
34134;SDS011;20410;55.578;12.968;2023-11-19T03:52:58;9.37;;;8.37;;
34134;SDS011;20410;55.578;12.968;2023-11-19T03:55:24;11.10;;;9.90;;
34134;SDS011;20410;55.578;12.968;2023-11-19T03:57:49;14.23;;;10.03;;
34134;SDS011;20410;55.578;12.968;2023-11-19T04:00:15;12.87;;;11.03;;
34134;SDS011;20410;55.578;12.968;2023-11-19T04:02:41;17.77;;;12.33;;
34134;SDS011;20410;55.578;12.968;2023-11-19T04:05:06;14.50;;;12.43;;
34134;SDS011;20410;55.578;12.968;2023-11-19T04:07:32;13.63;;;12.07;;
34134;SDS011;20410;55.578;12.968;2023-11-19T04:09:58;16.80;;;12.00;;
34134;SDS011;20410;55.578;12.968;2023-11-19T04:12:25;15.73;;;13.43;;
34134;SDS011;20410;55.578;12.968;2023-11-19T04:14:50;18.93;;;13.87;;
34134;SDS011;20410;55.578;12.968;2023-11-19T04:17:16;17.67;;;15.37;;
34134;SDS011;20410;55.578;12.968;2023-11-19T04:19:41;18.03;;;13.73;;
34134;SDS011;20410;55.578;12.968;2023-11-19T04:22:08;15.63;;;13.57;;
34134;SDS011;20410;55.578;12.968;2023-11-19T04:24:34;12.53;;;11.13;;
34134;SDS011;20410;55.578;12.968;2023-11-19T04:27:00;12.93;;;11.40;;
34134;SDS011;20410;55.578;12.968;2023-11-19T04:29:25;13.57;;;10.73;;
34134;SDS011;20410;55.578;12.968;2023-11-19T04:31:51;13.10;;;11.17;;
34134;SDS011;20410;55.578;12.968;2023-11-19T04:34:17;12.40;;;10.80;;
34134;SDS011;20410;55.578;12.968;2023-11-19T04:36:42;10.63;;;9.47;;
34134;SDS011;20410;55.578;12.968;2023-11-19T04:39:08;10.80;;;9.33;;
34134;SDS011;20410;55.578;12.968;2023-11-19T04:41:35;12.33;;;10.60;;
34134;SDS011;20410;55.578;12.968;2023-11-19T04:44:01;13.33;;;10.73;;
34134;SDS011;20410;55.578;12.968;2023-11-19T04:46:27;14.33;;;12.80;;
34134;SDS011;20410;55.578;12.968;2023-11-19T04:48:52;15.03;;;12.93;;
34134;SDS011;20410;55.578;12.968;2023-11-19T04:51:18;16.50;;;13.80;;
34134;SDS011;20410;55.578;12.968;2023-11-19T04:53:43;17.30;;;13.93;;
34134;SDS011;20410;55.578;12.968;2023-11-19T04:56:09;16.20;;;14.47;;
34134;SDS011;20410;55.578;12.968;2023-11-19T04:58:36;19.07;;;14.33;;
34134;SDS011;20410;55.578;12.968;2023-11-19T05:01:02;17.90;;;14.00;;
34134;SDS011;20410;55.578;12.968;2023-11-19T05:03:28;18.17;;;13.37;;
34134;SDS011;20410;55.578;12.968;2023-11-19T05:05:55;18.30;;;14.00;;
34134;SDS011;20410;55.578;12.968;2023-11-19T05:08:20;16.43;;;14.60;;
34134;SDS011;20410;55.578;12.968;2023-11-19T05:10:46;14.33;;;12.37;;
34134;SDS011;20410;55.578;12.968;2023-11-19T05:13:11;14.33;;;9.90;;
34134;SDS011;20410;55.578;12.968;2023-11-19T05:15:37;12.27;;;9.33;;
34134;SDS011;20410;55.578;12.968;2023-11-19T05:18:03;12.43;;;8.50;;
34134;SDS011;20410;55.578;12.968;2023-11-19T05:20:29;10.90;;;8.50;;
34134;SDS011;20410;55.578;12.968;2023-11-19T05:22:55;9.47;;;8.43;;
34134;SDS011;20410;55.578;12.968;2023-11-19T05:25:21;14.17;;;9.20;;
34134;SDS011;20410;55.578;12.968;2023-11-19T05:27:46;10.97;;;9.70;;
34134;SDS011;20410;55.578;12.968;2023-11-19T05:30:12;14.67;;;10.37;;
34134;SDS011;20410;55.578;12.968;2023-11-19T05:32:38;13.47;;;11.47;;
34134;SDS011;20410;55.578;12.968;2023-11-19T05:35:03;12.43;;;10.60;;
34134;SDS011;20410;55.578;12.968;2023-11-19T05:37:29;12.67;;;10.90;;
34134;SDS011;20410;55.578;12.968;2023-11-19T05:39:55;15.07;;;11.57;;
34134;SDS011;20410;55.578;12.968;2023-11-19T05:42:20;14.50;;;11.07;;
34134;SDS011;20410;55.578;12.968;2023-11-19T05:44:46;13.57;;;10.77;;
34134;SDS011;20410;55.578;12.968;2023-11-19T05:47:11;15.23;;;11.50;;
34134;SDS011;20410;55.578;12.968;2023-11-19T05:49:37;15.40;;;11.53;;
34134;SDS011;20410;55.578;12.968;2023-11-19T05:52:03;12.67;;;10.90;;
34134;SDS011;20410;55.578;12.968;2023-11-19T05:54:32;13.03;;;11.10;;
34134;SDS011;20410;55.578;12.968;2023-11-19T05:57:02;15.00;;;12.00;;
34134;SDS011;20410;55.578;12.968;2023-11-19T05:59:34;13.87;;;10.80;;
34134;SDS011;20410;55.578;12.968;2023-11-19T06:02:01;13.67;;;10.70;;
34134;SDS011;20410;55.578;12.968;2023-11-19T06:04:27;12.57;;;10.47;;
34134;SDS011;20410;55.578;12.968;2023-11-19T06:06:53;12.47;;;9.87;;
34134;SDS011;20410;55.578;12.968;2023-11-19T06:09:20;15.10;;;10.00;;
34134;SDS011;20410;55.578;12.968;2023-11-19T06:11:46;13.00;;;10.57;;
34134;SDS011;20410;55.578;12.968;2023-11-19T06:14:12;10.90;;;9.70;;
34134;SDS011;20410;55.578;12.968;2023-11-19T06:16:37;12.33;;;9.57;;
34134;SDS011;20410;55.578;12.968;2023-11-19T06:19:05;12.03;;;10.57;;
34134;SDS011;20410;55.578;12.968;2023-11-19T06:21:30;14.50;;;10.27;;
34134;SDS011;20410;55.578;12.968;2023-11-19T06:23:56;13.03;;;10.30;;
34134;SDS011;20410;55.578;12.968;2023-11-19T06:26:22;12.10;;;9.50;;
34134;SDS011;20410;55.578;12.968;2023-11-19T06:28:48;10.43;;;9.10;;
34134;SDS011;20410;55.578;12.968;2023-11-19T06:31:13;12.47;;;9.93;;
34134;SDS011;20410;55.578;12.968;2023-11-19T06:33:41;11.50;;;9.23;;
34134;SDS011;20410;55.578;12.968;2023-11-19T06:36:07;13.70;;;10.10;;
34134;SDS011;20410;55.578;12.968;2023-11-19T06:38:34;12.13;;;10.07;;
34134;SDS011;20410;55.578;12.968;2023-11-19T06:41:00;14.10;;;10.10;;
34134;SDS011;20410;55.578;12.968;2023-11-19T06:43:26;12.70;;;10.03;;
34134;SDS011;20410;55.578;12.968;2023-11-19T06:45:53;11.13;;;9.93;;
34134;SDS011;20410;55.578;12.968;2023-11-19T06:48:18;13.70;;;9.70;;
34134;SDS011;20410;55.578;12.968;2023-11-19T06:50:44;10.83;;;9.70;;
34134;SDS011;20410;55.578;12.968;2023-11-19T06:53:09;12.50;;;10.50;;
34134;SDS011;20410;55.578;12.968;2023-11-19T06:55:35;11.50;;;10.07;;
34134;SDS011;20410;55.578;12.968;2023-11-19T06:58:01;14.53;;;11.80;;
34134;SDS011;20410;55.578;12.968;2023-11-19T07:00:28;13.43;;;10.30;;
34134;SDS011;20410;55.578;12.968;2023-11-19T07:02:54;11.07;;;9.10;;
34134;SDS011;20410;55.578;12.968;2023-11-19T07:05:20;10.87;;;9.30;;
34134;SDS011;20410;55.578;12.968;2023-11-19T07:07:46;11.17;;;9.03;;
34134;SDS011;20410;55.578;12.968;2023-11-19T07:10:12;10.23;;;8.77;;
34134;SDS011;20410;55.578;12.968;2023-11-19T07:12:37;11.10;;;8.23;;
34134;SDS011;20410;55.578;12.968;2023-11-19T07:15:03;10.20;;;7.30;;
34134;SDS011;20410;55.578;12.968;2023-11-19T07:17:30;8.80;;;7.20;;
34134;SDS011;20410;55.578;12.968;2023-11-19T07:19:56;10.37;;;7.93;;
34134;SDS011;20410;55.578;12.968;2023-11-19T07:22:24;11.80;;;7.77;;
34134;SDS011;20410;55.578;12.968;2023-11-19T07:24:50;10.67;;;7.43;;
34134;SDS011;20410;55.578;12.968;2023-11-19T07:27:16;9.73;;;7.90;;
34134;SDS011;20410;55.578;12.968;2023-11-19T07:29:43;9.53;;;7.73;;
34134;SDS011;20410;55.578;12.968;2023-11-19T07:32:09;9.50;;;8.30;;
34134;SDS011;20410;55.578;12.968;2023-11-19T07:34:35;10.60;;;7.70;;
34134;SDS011;20410;55.578;12.968;2023-11-19T07:37:01;10.73;;;8.10;;
34134;SDS011;20410;55.578;12.968;2023-11-19T07:39:27;10.97;;;8.60;;
34134;SDS011;20410;55.578;12.968;2023-11-19T07:41:53;10.00;;;8.30;;
34134;SDS011;20410;55.578;12.968;2023-11-19T07:44:20;10.63;;;7.50;;
34134;SDS011;20410;55.578;12.968;2023-11-19T07:46:46;11.63;;;9.13;;
34134;SDS011;20410;55.578;12.968;2023-11-19T07:49:12;10.10;;;8.57;;
34134;SDS011;20410;55.578;12.968;2023-11-19T07:51:38;10.10;;;8.77;;
34134;SDS011;20410;55.578;12.968;2023-11-19T07:54:04;11.20;;;8.33;;
34134;SDS011;20410;55.578;12.968;2023-11-19T07:56:31;9.70;;;8.40;;
34134;SDS011;20410;55.578;12.968;2023-11-19T07:58:59;10.30;;;9.10;;
34134;SDS011;20410;55.578;12.968;2023-11-19T08:01:24;11.00;;;9.57;;
34134;SDS011;20410;55.578;12.968;2023-11-19T08:03:50;11.83;;;9.57;;
34134;SDS011;20410;55.578;12.968;2023-11-19T08:06:16;11.23;;;8.80;;
34134;SDS011;20410;55.578;12.968;2023-11-19T08:08:41;10.33;;;8.57;;
34134;SDS011;20410;55.578;12.968;2023-11-19T08:11:07;10.57;;;8.27;;
34134;SDS011;20410;55.578;12.968;2023-11-19T08:13:33;11.23;;;9.53;;
34134;SDS011;20410;55.578;12.968;2023-11-19T08:15:59;12.30;;;9.83;;
34134;SDS011;20410;55.578;12.968;2023-11-19T08:18:24;10.17;;;8.70;;
34134;SDS011;20410;55.578;12.968;2023-11-19T08:20:50;10.10;;;8.83;;
34134;SDS011;20410;55.578;12.968;2023-11-19T08:23:18;9.33;;;8.17;;
34134;SDS011;20410;55.578;12.968;2023-11-19T08:25:45;10.17;;;7.73;;
34134;SDS011;20410;55.578;12.968;2023-11-19T08:28:10;10.47;;;8.93;;
34134;SDS011;20410;55.578;12.968;2023-11-19T08:30:36;13.13;;;9.17;;
34134;SDS011;20410;55.578;12.968;2023-11-19T08:33:01;10.87;;;8.73;;
34134;SDS011;20410;55.578;12.968;2023-11-19T08:35:31;10.87;;;8.83;;
34134;SDS011;20410;55.578;12.968;2023-11-19T08:37:57;9.23;;;7.97;;
34134;SDS011;20410;55.578;12.968;2023-11-19T08:40:24;9.80;;;7.27;;
34134;SDS011;20410;55.578;12.968;2023-11-19T08:42:50;12.77;;;8.53;;
34134;SDS011;20410;55.578;12.968;2023-11-19T08:45:16;9.50;;;7.87;;
34134;SDS011;20410;55.578;12.968;2023-11-19T08:47:42;9.57;;;8.00;;
34134;SDS011;20410;55.578;12.968;2023-11-19T08:50:09;11.27;;;8.37;;
34134;SDS011;20410;55.578;12.968;2023-11-19T08:52:35;11.10;;;7.60;;
34134;SDS011;20410;55.578;12.968;2023-11-19T08:55:01;10.57;;;8.43;;
34134;SDS011;20410;55.578;12.968;2023-11-19T08:57:28;10.13;;;7.23;;
34134;SDS011;20410;55.578;12.968;2023-11-19T08:59:53;8.83;;;7.67;;
34134;SDS011;20410;55.578;12.968;2023-11-19T09:02:19;7.97;;;6.60;;
34134;SDS011;20410;55.578;12.968;2023-11-19T09:04:44;10.30;;;7.47;;
34134;SDS011;20410;55.578;12.968;2023-11-19T09:07:10;9.13;;;7.03;;
34134;SDS011;20410;55.578;12.968;2023-11-19T09:09:35;8.33;;;6.03;;
34134;SDS011;20410;55.578;12.968;2023-11-19T09:12:01;8.20;;;6.03;;
34134;SDS011;20410;55.578;12.968;2023-11-19T09:14:28;7.33;;;5.97;;
34134;SDS011;20410;55.578;12.968;2023-11-19T09:16:55;7.07;;;5.50;;
34134;SDS011;20410;55.578;12.968;2023-11-19T09:19:21;7.30;;;5.07;;
34134;SDS011;20410;55.578;12.968;2023-11-19T09:21:47;6.60;;;4.60;;
34134;SDS011;20410;55.578;12.968;2023-11-19T09:24:13;5.83;;;5.33;;
34134;SDS011;20410;55.578;12.968;2023-11-19T09:26:38;7.73;;;4.87;;
34134;SDS011;20410;55.578;12.968;2023-11-19T09:29:06;6.90;;;5.13;;
34134;SDS011;20410;55.578;12.968;2023-11-19T09:31:32;5.60;;;4.60;;
34134;SDS011;20410;55.578;12.968;2023-11-19T09:33:58;6.43;;;3.87;;
34134;SDS011;20410;55.578;12.968;2023-11-19T09:36:23;5.27;;;3.73;;
34134;SDS011;20410;55.578;12.968;2023-11-19T09:38:49;4.77;;;4.03;;
34134;SDS011;20410;55.578;12.968;2023-11-19T09:41:15;7.80;;;3.60;;
34134;SDS011;20410;55.578;12.968;2023-11-19T09:43:42;4.90;;;3.43;;
34134;SDS011;20410;55.578;12.968;2023-11-19T09:46:11;3.97;;;3.07;;
34134;SDS011;20410;55.578;12.968;2023-11-19T09:48:38;4.93;;;3.37;;
34134;SDS011;20410;55.578;12.968;2023-11-19T09:51:08;4.77;;;2.87;;
34134;SDS011;20410;55.578;12.968;2023-11-19T09:53:35;4.23;;;2.97;;
34134;SDS011;20410;55.578;12.968;2023-11-19T09:56:02;9.20;;;3.17;;
34134;SDS011;20410;55.578;12.968;2023-11-19T09:58:29;4.17;;;2.97;;
34134;SDS011;20410;55.578;12.968;2023-11-19T10:00:56;4.43;;;3.03;;
34134;SDS011;20410;55.578;12.968;2023-11-19T10:03:26;3.73;;;2.73;;
34134;SDS011;20410;55.578;12.968;2023-11-19T10:05:56;3.67;;;2.77;;
34134;SDS011;20410;55.578;12.968;2023-11-19T10:08:22;4.93;;;2.97;;
34134;SDS011;20410;55.578;12.968;2023-11-19T10:10:48;2.80;;;2.40;;
34134;SDS011;20410;55.578;12.968;2023-11-19T10:13:14;4.03;;;2.53;;
34134;SDS011;20410;55.578;12.968;2023-11-19T10:15:40;3.07;;;2.77;;
34134;SDS011;20410;55.578;12.968;2023-11-19T10:18:06;3.70;;;2.23;;
34134;SDS011;20410;55.578;12.968;2023-11-19T10:20:35;3.43;;;3.13;;
34134;SDS011;20410;55.578;12.968;2023-11-19T10:23:02;2.40;;;2.20;;
34134;SDS011;20410;55.578;12.968;2023-11-19T10:25:28;2.80;;;2.50;;
34134;SDS011;20410;55.578;12.968;2023-11-19T10:27:55;2.93;;;2.60;;
34134;SDS011;20410;55.578;12.968;2023-11-19T10:30:28;2.77;;;2.20;;
34134;SDS011;20410;55.578;12.968;2023-11-19T10:33:11;5.50;;;2.40;;
34134;SDS011;20410;55.578;12.968;2023-11-19T10:35:55;3.13;;;2.37;;
34134;SDS011;20410;55.578;12.968;2023-11-19T10:38:22;3.67;;;2.57;;
34134;SDS011;20410;55.578;12.968;2023-11-19T10:40:48;2.53;;;2.27;;
34134;SDS011;20410;55.578;12.968;2023-11-19T10:43:15;3.60;;;2.27;;
34134;SDS011;20410;55.578;12.968;2023-11-19T10:45:46;3.90;;;2.03;;
34134;SDS011;20410;55.578;12.968;2023-11-19T10:48:12;3.90;;;2.70;;
34134;SDS011;20410;55.578;12.968;2023-11-19T10:50:38;3.03;;;2.70;;
34134;SDS011;20410;55.578;12.968;2023-11-19T10:53:05;3.07;;;2.63;;
34134;SDS011;20410;55.578;12.968;2023-11-19T10:55:32;3.63;;;2.70;;
34134;SDS011;20410;55.578;12.968;2023-11-19T10:58:06;4.10;;;2.20;;
34134;SDS011;20410;55.578;12.968;2023-11-19T11:00:53;3.43;;;2.17;;
34134;SDS011;20410;55.578;12.968;2023-11-19T11:03:24;2.97;;;2.13;;
34134;SDS011;20410;55.578;12.968;2023-11-19T11:05:52;2.63;;;2.27;;
34134;SDS011;20410;55.578;12.968;2023-11-19T11:08:19;4.10;;;2.40;;
34134;SDS011;20410;55.578;12.968;2023-11-19T11:10:48;2.57;;;1.77;;
34134;SDS011;20410;55.578;12.968;2023-11-19T11:13:18;5.20;;;2.63;;
34134;SDS011;20410;55.578;12.968;2023-11-19T11:15:44;2.73;;;2.53;;
34134;SDS011;20410;55.578;12.968;2023-11-19T11:18:11;3.27;;;2.60;;
34134;SDS011;20410;55.578;12.968;2023-11-19T11:20:38;3.47;;;2.50;;
34134;SDS011;20410;55.578;12.968;2023-11-19T11:23:10;3.30;;;2.57;;
34134;SDS011;20410;55.578;12.968;2023-11-19T11:28:35;4.50;;;3.20;;
34134;SDS011;20410;55.578;12.968;2023-11-19T11:31:36;3.87;;;2.40;;
34134;SDS011;20410;55.578;12.968;2023-11-19T11:37:49;3.87;;;2.43;;
34134;SDS011;20410;55.578;12.968;2023-11-19T11:39:51;4.00;;;2.40;;
34134;SDS011;20410;55.578;12.968;2023-11-19T11:55:27;6.23;;;3.03;;
34134;SDS011;20410;55.578;12.968;2023-11-19T11:57:54;3.63;;;2.83;;
34134;SDS011;20410;55.578;12.968;2023-11-19T12:00:27;3.37;;;2.63;;
34134;SDS011;20410;55.578;12.968;2023-11-19T12:02:55;3.63;;;2.53;;
34134;SDS011;20410;55.578;12.968;2023-11-19T12:05:21;3.23;;;2.53;;
34134;SDS011;20410;55.578;12.968;2023-11-19T12:07:57;3.30;;;2.63;;
34134;SDS011;20410;55.578;12.968;2023-11-19T12:10:26;4.87;;;2.73;;
34134;SDS011;20410;55.578;12.968;2023-11-19T12:12:59;2.50;;;2.10;;
34134;SDS011;20410;55.578;12.968;2023-11-19T12:15:26;3.20;;;2.83;;
34134;SDS011;20410;55.578;12.968;2023-11-19T12:17:53;4.57;;;2.67;;
34134;SDS011;20410;55.578;12.968;2023-11-19T12:20:22;3.97;;;2.53;;
34134;SDS011;20410;55.578;12.968;2023-11-19T12:22:50;5.03;;;2.40;;
34134;SDS011;20410;55.578;12.968;2023-11-19T12:25:16;3.00;;;2.60;;
34134;SDS011;20410;55.578;12.968;2023-11-19T12:27:45;3.40;;;2.40;;
34134;SDS011;20410;55.578;12.968;2023-11-19T12:30:12;2.63;;;2.37;;
34134;SDS011;20410;55.578;12.968;2023-11-19T12:32:51;4.47;;;2.57;;
34134;SDS011;20410;55.578;12.968;2023-11-19T12:35:21;2.63;;;2.27;;
34134;SDS011;20410;55.578;12.968;2023-11-19T12:37:47;3.10;;;2.80;;
34134;SDS011;20410;55.578;12.968;2023-11-19T12:40:15;3.17;;;2.30;;
34134;SDS011;20410;55.578;12.968;2023-11-19T12:42:42;3.77;;;2.83;;
34134;SDS011;20410;55.578;12.968;2023-11-19T12:45:08;3.40;;;2.50;;
34134;SDS011;20410;55.578;12.968;2023-11-19T12:47:36;4.07;;;2.73;;
34134;SDS011;20410;55.578;12.968;2023-11-19T12:50:05;5.60;;;2.50;;
34134;SDS011;20410;55.578;12.968;2023-11-19T12:52:36;4.97;;;2.50;;
34134;SDS011;20410;55.578;12.968;2023-11-19T12:55:05;2.67;;;2.43;;
34134;SDS011;20410;55.578;12.968;2023-11-19T12:57:54;4.37;;;2.80;;
34134;SDS011;20410;55.578;12.968;2023-11-19T13:00:21;5.90;;;3.17;;
34134;SDS011;20410;55.578;12.968;2023-11-19T13:02:49;2.83;;;2.50;;
34134;SDS011;20410;55.578;12.968;2023-11-19T13:05:34;3.17;;;2.10;;
34134;SDS011;20410;55.578;12.968;2023-11-19T13:10:28;4.33;;;3.23;;
34134;SDS011;20410;55.578;12.968;2023-11-19T13:13:01;3.07;;;2.47;;
34134;SDS011;20410;55.578;12.968;2023-11-19T13:15:29;5.03;;;3.00;;
34134;SDS011;20410;55.578;12.968;2023-11-19T13:17:54;3.07;;;2.63;;
34134;SDS011;20410;55.578;12.968;2023-11-19T13:20:20;3.50;;;2.77;;
34134;SDS011;20410;55.578;12.968;2023-11-19T13:22:55;5.00;;;2.90;;
34134;SDS011;20410;55.578;12.968;2023-11-19T13:25:22;3.87;;;2.50;;
34134;SDS011;20410;55.578;12.968;2023-11-19T13:27:48;3.00;;;2.33;;
34134;SDS011;20410;55.578;12.968;2023-11-19T13:30:13;4.07;;;2.70;;
34134;SDS011;20410;55.578;12.968;2023-11-19T13:32:39;3.07;;;2.37;;
34134;SDS011;20410;55.578;12.968;2023-11-19T13:35:05;2.43;;;2.17;;
34134;SDS011;20410;55.578;12.968;2023-11-19T13:37:33;3.33;;;2.60;;
34134;SDS011;20410;55.578;12.968;2023-11-19T13:39:59;3.60;;;2.53;;
34134;SDS011;20410;55.578;12.968;2023-11-19T13:42:25;4.70;;;2.40;;
34134;SDS011;20410;55.578;12.968;2023-11-19T13:44:50;3.30;;;3.00;;
34134;SDS011;20410;55.578;12.968;2023-11-19T13:47:16;4.37;;;2.70;;
34134;SDS011;20410;55.578;12.968;2023-11-19T13:49:44;3.03;;;2.20;;
34134;SDS011;20410;55.578;12.968;2023-11-19T13:52:10;4.07;;;3.17;;
34134;SDS011;20410;55.578;12.968;2023-11-19T13:54:36;3.90;;;2.73;;
34134;SDS011;20410;55.578;12.968;2023-11-19T13:57:02;3.33;;;2.13;;
34134;SDS011;20410;55.578;12.968;2023-11-19T13:59:29;3.93;;;2.30;;
34134;SDS011;20410;55.578;12.968;2023-11-19T14:01:58;2.90;;;2.50;;
34134;SDS011;20410;55.578;12.968;2023-11-19T14:04:24;2.80;;;2.40;;
34134;SDS011;20410;55.578;12.968;2023-11-19T14:06:50;4.60;;;2.63;;
34134;SDS011;20410;55.578;12.968;2023-11-19T14:09:16;3.07;;;2.70;;
34134;SDS011;20410;55.578;12.968;2023-11-19T14:11:42;4.33;;;2.73;;
34134;SDS011;20410;55.578;12.968;2023-11-19T14:14:08;3.20;;;2.90;;
34134;SDS011;20410;55.578;12.968;2023-11-19T14:16:33;3.17;;;2.20;;
34134;SDS011;20410;55.578;12.968;2023-11-19T14:18:59;3.33;;;2.60;;
34134;SDS011;20410;55.578;12.968;2023-11-19T14:21:25;3.13;;;2.87;;
34134;SDS011;20410;55.578;12.968;2023-11-19T14:23:51;2.40;;;2.20;;
34134;SDS011;20410;55.578;12.968;2023-11-19T14:26:20;3.10;;;2.60;;
34134;SDS011;20410;55.578;12.968;2023-11-19T14:28:46;4.87;;;2.63;;
34134;SDS011;20410;55.578;12.968;2023-11-19T14:31:12;3.57;;;2.90;;
34134;SDS011;20410;55.578;12.968;2023-11-19T14:33:38;5.57;;;2.77;;
34134;SDS011;20410;55.578;12.968;2023-11-19T14:36:04;3.30;;;2.70;;
34134;SDS011;20410;55.578;12.968;2023-11-19T14:38:31;4.53;;;2.63;;
34134;SDS011;20410;55.578;12.968;2023-11-19T14:40:57;3.67;;;2.77;;
34134;SDS011;20410;55.578;12.968;2023-11-19T14:43:24;3.73;;;2.37;;
34134;SDS011;20410;55.578;12.968;2023-11-19T14:45:50;2.53;;;2.23;;
34134;SDS011;20410;55.578;12.968;2023-11-19T14:48:16;2.73;;;2.03;;
34134;SDS011;20410;55.578;12.968;2023-11-19T14:50:44;2.70;;;2.50;;